Dankov, Russia
Current Conditions -  °F | °C
As of 5:30 PM on Thursday 23 Oct 2014 (Local Time) from UUOO Reporting Station
Clear Clear  
Wind Chill: 19°   Ceiling: Unl
Heat Index: 25°   Visibility: 6mi
Dew Point: 12°   Wind: 4mph
Humidity: 59%   Direction: 360°N
Pressure: 30.24"   Gusts: NA
Location:  53.25°N, 39.15°E
Report Text: UUOO 231430Z 36002MPS CAVOK M04/M11 Q1024 NOSIG RMK 30090070
Loading
Personal Weather Stations






























Interactive Weather Map
Tropical Storm Tracking
New forecast layout! Learn more

10-Day Weather Forecast

Advertisements
Track Severe Weather on mobile